Time;durP1;ratioP1;P1;durP2;ratioP2;P2;SDS_P1;SDS_P2;PMS_P1;PMS_P2;Temp;Humidity;BMP_temperature;BMP_pressure;BME280_temperature;BME280_humidity;BME280_pressure;Samples;Min_cycle;Max_cycle;Signal;HPM_P1;HPM_P2
2022/04/12 00:01:42;;;;;;;7.55;4.30;;;;;;;;;;5006694;28;20473;-76
2022/04/12 00:04:08;;;;;;;4.50;3.80;;;;;;;;;;5007193;28;20188;-77
2022/04/12 00:06:34;;;;;;;7.47;4.20;;;;;;;;;;5005667;28;20215;-77
2022/04/12 00:09:00;;;;;;;5.90;4.20;;;;;;;;;;5004399;28;20191;-78
2022/04/12 00:11:28;;;;;;;6.67;4.40;;;;;;;;;;5009102;28;20304;-78
2022/04/12 00:13:54;;;;;;;7.97;4.17;;;;;;;;;;5008233;28;20837;-76
2022/04/12 00:16:20;;;;;;;5.67;3.90;;;;;;;;;;5003821;28;20582;-76
2022/04/12 00:19:05;;;;;;;5.07;3.70;;;;;;;;;;5004535;28;20511;-78
2022/04/12 00:21:35;;;;;;;4.40;3.27;;;;;;;;;;5004840;28;20199;-77
2022/04/12 00:24:05;;;;;;;4.07;3.20;;;;;;;;;;4989823;28;20179;-77
2022/04/12 00:26:33;;;;;;;4.23;3.33;;;;;;;;;;5007962;28;20203;-77
2022/04/12 00:29:00;;;;;;;5.07;3.70;;;;;;;;;;4992815;28;20191;-77
2022/04/12 00:31:26;;;;;;;5.90;3.70;;;;;;;;;;4991843;28;20245;-76
2022/04/12 00:33:53;;;;;;;4.20;3.43;;;;;;;;;;4990225;28;20198;-76
2022/04/12 00:36:19;;;;;;;5.47;3.60;;;;;;;;;;5007435;28;20437;-76
2022/04/12 00:38:45;;;;;;;4.17;3.10;;;;;;;;;;4998728;28;20193;-76
2022/04/12 00:41:11;;;;;;;5.50;3.00;;;;;;;;;;5007467;28;20620;-77
2022/04/12 00:43:38;;;;;;;3.07;2.77;;;;;;;;;;5009233;28;20191;-77
2022/04/12 00:46:04;;;;;;;5.70;3.20;;;;;;;;;;5008463;28;20706;-76
2022/04/12 00:48:31;;;;;;;3.33;3.03;;;;;;;;;;5005528;28;20209;-77
2022/04/12 00:50:58;;;;;;;4.27;2.73;;;;;;;;;;5006116;28;20500;-77
2022/04/12 00:53:24;;;;;;;4.80;3.60;;;;;;;;;;5005939;28;20580;-77
2022/04/12 00:55:51;;;;;;;4.73;2.83;;;;;;;;;;5006396;28;20281;-76
2022/04/12 00:58:17;;;;;;;4.30;3.13;;;;;;;;;;5006967;28;20245;-77
2022/04/12 01:00:44;;;;;;;4.27;3.57;;;;;;;;;;5004369;28;20214;-77
2022/04/12 01:03:10;;;;;;;3.90;3.30;;;;;;;;;;5005418;28;20237;-77
2022/04/12 01:05:37;;;;;;;4.67;3.60;;;;;;;;;;5003492;28;20206;-77
2022/04/12 01:08:03;;;;;;;4.57;3.70;;;;;;;;;;4988444;28;20290;-77
2022/04/12 01:10:33;;;;;;;5.00;4.00;;;;;;;;;;5006719;28;20536;-76
2022/04/12 01:13:00;;;;;;;5.10;3.97;;;;;;;;;;5004039;28;20272;-76
2022/04/12 01:15:28;;;;;;;5.77;4.50;;;;;;;;;;5005589;28;20559;-77
2022/04/12 01:17:54;;;;;;;4.17;3.77;;;;;;;;;;5006410;28;20294;-76
2022/04/12 01:20:28;;;;;;;5.23;4.00;;;;;;;;;;5005929;28;20600;-76
2022/04/12 01:23:14;;;;;;;3.80;3.20;;;;;;;;;;5002783;28;20558;-77
2022/04/12 01:25:41;;;;;;;4.13;3.30;;;;;;;;;;5005998;28;20229;-76
2022/04/12 01:28:08;;;;;;;5.07;3.50;;;;;;;;;;4992482;28;20187;-76
2022/04/12 01:30:34;;;;;;;4.77;3.80;;;;;;;;;;5004438;28;20191;-77
2022/04/12 01:33:00;;;;;;;3.67;2.80;;;;;;;;;;5000700;28;20194;-76
2022/04/12 01:35:27;;;;;;;3.90;3.13;;;;;;;;;;5004647;28;20261;-76
2022/04/12 01:37:53;;;;;;;3.87;2.97;;;;;;;;;;4976517;28;20199;-78
2022/04/12 01:40:20;;;;;;;2.90;2.50;;;;;;;;;;4992727;28;20665;-77
2022/04/12 01:42:46;;;;;;;3.10;2.70;;;;;;;;;;5006940;28;20229;-77
2022/04/12 01:45:12;;;;;;;5.10;3.70;;;;;;;;;;5010311;28;20206;-76
2022/04/12 01:47:38;;;;;;;4.20;3.47;;;;;;;;;;5009780;28;20187;-76
2022/04/12 01:50:06;;;;;;;4.63;3.07;;;;;;;;;;5007790;28;20194;-76
2022/04/12 01:52:33;;;;;;;5.10;3.50;;;;;;;;;;5005118;28;20188;-77
2022/04/12 01:55:02;;;;;;;4.43;2.80;;;;;;;;;;5006712;28;20245;-77
2022/04/12 01:57:28;;;;;;;4.40;3.47;;;;;;;;;;5010309;28;20187;-78
2022/04/12 01:59:54;;;;;;;3.90;3.13;;;;;;;;;;5006688;28;20347;-77
2022/04/12 02:02:20;;;;;;;3.93;2.97;;;;;;;;;;5005083;28;20201;-77
2022/04/12 02:04:46;;;;;;;4.80;3.30;;;;;;;;;;5010129;28;20179;-77
2022/04/12 02:07:12;;;;;;;3.50;2.93;;;;;;;;;;5005491;28;20183;-78
2022/04/12 02:09:39;;;;;;;5.67;3.70;;;;;;;;;;5024393;28;20203;-77
2022/04/12 02:12:05;;;;;;;6.37;3.50;;;;;;;;;;5008579;28;20745;-77
2022/04/12 02:14:31;;;;;;;4.77;3.63;;;;;;;;;;5008834;28;20266;-77
2022/04/12 02:16:57;;;;;;;4.27;3.10;;;;;;;;;;5008861;28;20218;-77
2022/04/12 02:19:23;;;;;;;3.50;3.07;;;;;;;;;;5010649;28;20192;-77
2022/04/12 02:21:49;;;;;;;4.40;3.33;;;;;;;;;;5010292;28;20175;-76
2022/04/12 02:24:16;;;;;;;4.03;3.30;;;;;;;;;;5009763;28;20592;-76
2022/04/12 02:26:42;;;;;;;5.87;3.60;;;;;;;;;;5001612;28;20672;-76
2022/04/12 02:29:09;;;;;;;4.40;3.30;;;;;;;;;;5008718;28;20303;-77
2022/04/12 02:31:36;;;;;;;4.13;3.40;;;;;;;;;;4976746;28;20990;-77
2022/04/12 02:34:02;;;;;;;5.07;3.43;;;;;;;;;;5009238;28;20179;-76
2022/04/12 02:36:28;;;;;;;4.20;3.50;;;;;;;;;;5011877;28;20211;-76
2022/04/12 02:38:54;;;;;;;8.17;4.43;;;;;;;;;;5012107;28;20187;-76
2022/04/12 02:41:20;;;;;;;5.20;3.87;;;;;;;;;;5010345;28;20222;-77
2022/04/12 02:43:47;;;;;;;6.60;4.40;;;;;;;;;;5017145;28;20180;-76
2022/04/12 02:46:14;;;;;;;6.83;4.60;;;;;;;;;;5011973;28;20234;-76
2022/04/12 02:48:40;;;;;;;5.73;4.87;;;;;;;;;;5014009;28;20687;-77
2022/04/12 02:51:06;;;;;;;5.43;4.93;;;;;;;;;;5012357;28;20266;-78
2022/04/12 02:53:32;;;;;;;5.13;4.17;;;;;;;;;;5009523;28;20191;-77
2022/04/12 02:55:59;;;;;;;6.83;6.13;;;;;;;;;;5009971;28;20579;-76
2022/04/12 02:58:25;;;;;;;6.90;5.77;;;;;;;;;;5010436;28;20187;-76
2022/04/12 03:00:51;;;;;;;6.40;5.53;;;;;;;;;;5012417;28;20215;-76
2022/04/12 03:03:17;;;;;;;7.57;5.40;;;;;;;;;;5011542;28;22927;-77
2022/04/12 03:05:44;;;;;;;6.30;4.93;;;;;;;;;;5011272;28;20341;-76
2022/04/12 03:08:11;;;;;;;7.37;5.77;;;;;;;;;;5008809;28;20811;-76
2022/04/12 03:10:38;;;;;;;6.73;6.00;;;;;;;;;;5011029;28;20702;-76
2022/04/12 03:13:04;;;;;;;11.43;5.93;;;;;;;;;;5001197;28;20183;-77
2022/04/12 03:15:30;;;;;;;8.00;5.93;;;;;;;;;;5010477;28;20578;-76
2022/04/12 03:17:56;;;;;;;8.50;6.13;;;;;;;;;;5000867;28;20237;-76
2022/04/12 03:20:22;;;;;;;7.30;6.27;;;;;;;;;;5012429;28;20223;-76
2022/04/12 03:22:48;;;;;;;10.20;6.70;;;;;;;;;;5012605;28;20190;-76
2022/04/12 03:25:15;;;;;;;9.00;6.70;;;;;;;;;;5007692;28;20229;-76
2022/04/12 03:27:41;;;;;;;8.47;5.67;;;;;;;;;;5010965;28;20576;-76
2022/04/12 03:30:07;;;;;;;7.90;6.57;;;;;;;;;;5009927;28;20187;-77
2022/04/12 03:32:33;;;;;;;8.73;6.10;;;;;;;;;;5007872;28;20179;-77
2022/04/12 03:34:59;;;;;;;7.93;5.77;;;;;;;;;;5009095;28;20213;-77
2022/04/12 03:37:26;;;;;;;7.93;6.43;;;;;;;;;;5010030;28;20195;-77
2022/04/12 03:39:52;;;;;;;7.10;5.30;;;;;;;;;;5007278;28;20211;-77
2022/04/12 03:42:18;;;;;;;14.33;8.37;;;;;;;;;;5011938;28;20234;-76
2022/04/12 03:44:45;;;;;;;7.97;6.23;;;;;;;;;;5009790;28;20191;-76
2022/04/12 03:47:12;;;;;;;6.90;5.90;;;;;;;;;;5010741;28;20621;-76
2022/04/12 03:49:38;;;;;;;7.10;6.40;;;;;;;;;;5011450;28;20183;-76
2022/04/12 03:52:05;;;;;;;7.00;5.77;;;;;;;;;;4990487;28;20188;-76
2022/04/12 03:54:31;;;;;;;6.80;5.57;;;;;;;;;;5011278;28;20199;-77
2022/04/12 03:56:57;;;;;;;6.53;5.13;;;;;;;;;;5011510;28;20333;-76
2022/04/12 03:59:24;;;;;;;8.20;6.10;;;;;;;;;;5021479;28;20710;-76
2022/04/12 04:01:50;;;;;;;10.67;6.37;;;;;;;;;;5021051;28;20214;-76
2022/04/12 04:04:17;;;;;;;7.87;5.60;;;;;;;;;;5008259;28;20180;-76
2022/04/12 04:06:43;;;;;;;8.60;6.17;;;;;;;;;;5008579;28;20218;-77
2022/04/12 04:09:09;;;;;;;6.67;5.50;;;;;;;;;;5011001;28;20191;-76
2022/04/12 04:11:38;;;;;;;8.47;5.60;;;;;;;;;;5019875;28;20713;-76
2022/04/12 04:14:05;;;;;;;7.83;6.10;;;;;;;;;;5008215;28;20719;-77
2022/04/12 04:16:31;;;;;;;9.43;6.33;;;;;;;;;;5011400;28;20326;-76
2022/04/12 04:18:57;;;;;;;6.00;5.17;;;;;;;;;;5011503;28;20278;-76
2022/04/12 04:21:23;;;;;;;8.13;6.23;;;;;;;;;;5009205;28;20179;-76
2022/04/12 04:23:50;;;;;;;6.90;5.93;;;;;;;;;;5007576;28;20187;-76
2022/04/12 04:26:16;;;;;;;7.63;6.00;;;;;;;;;;5024092;28;20199;-76
2022/04/12 04:28:44;;;;;;;7.77;6.20;;;;;;;;;;5021428;28;20175;-78
2022/04/12 04:31:11;;;;;;;8.23;6.70;;;;;;;;;;5006761;28;20179;-76
2022/04/12 04:33:37;;;;;;;9.43;6.80;;;;;;;;;;5010726;28;20799;-76
2022/04/12 04:36:03;;;;;;;8.83;6.83;;;;;;;;;;5010272;28;20198;-76
2022/04/12 04:38:29;;;;;;;8.93;6.93;;;;;;;;;;5009586;28;20179;-76
2022/04/12 04:40:56;;;;;;;9.20;6.67;;;;;;;;;;5009375;28;20563;-76
2022/04/12 04:43:22;;;;;;;7.43;5.27;;;;;;;;;;5007932;28;20182;-76
2022/04/12 04:45:48;;;;;;;6.93;6.00;;;;;;;;;;5010646;28;20245;-77
2022/04/12 04:48:15;;;;;;;8.30;6.23;;;;;;;;;;5010329;28;20547;-77
2022/04/12 04:50:41;;;;;;;10.33;5.87;;;;;;;;;;5007380;28;20640;-79
2022/04/12 04:53:10;;;;;;;8.57;6.70;;;;;;;;;;5009675;28;20195;-78
2022/04/12 04:55:37;;;;;;;8.70;6.10;;;;;;;;;;5002603;28;20195;-80
2022/04/12 04:58:04;;;;;;;7.37;6.53;;;;;;;;;;5004641;28;20324;-78
2022/04/12 05:00:32;;;;;;;8.70;7.27;;;;;;;;;;5008093;28;20801;-78
2022/04/12 05:02:59;;;;;;;10.07;6.83;;;;;;;;;;4993531;28;20183;-78
2022/04/12 05:05:25;;;;;;;9.60;7.10;;;;;;;;;;5009979;28;20202;-78
2022/04/12 05:07:52;;;;;;;9.83;6.90;;;;;;;;;;5006886;28;20262;-77
2022/04/12 05:10:22;;;;;;;9.87;7.67;;;;;;;;;;4992990;28;20193;-78
2022/04/12 05:12:48;;;;;;;10.47;7.73;;;;;;;;;;5007774;28;20598;-78
2022/04/12 05:15:14;;;;;;;10.00;7.63;;;;;;;;;;5010896;28;20657;-78
2022/04/12 05:17:41;;;;;;;9.63;7.83;;;;;;;;;;4992449;28;20745;-78
2022/04/12 05:20:09;;;;;;;10.80;8.27;;;;;;;;;;5011934;28;20907;-78
2022/04/12 05:22:35;;;;;;;10.30;8.87;;;;;;;;;;5009532;28;20832;-76
2022/04/12 05:25:02;;;;;;;12.67;8.63;;;;;;;;;;5009390;28;20305;-79
2022/04/12 05:27:32;;;;;;;10.93;8.67;;;;;;;;;;4994148;28;20541;-78
2022/04/12 05:29:59;;;;;;;11.27;8.53;;;;;;;;;;5012836;28;20183;-79
2022/04/12 05:32:25;;;;;;;11.90;8.27;;;;;;;;;;5008517;28;20226;-78
2022/04/12 05:34:52;;;;;;;9.93;7.93;;;;;;;;;;5008484;28;20226;-81
2022/04/12 05:37:18;;;;;;;11.07;7.33;;;;;;;;;;5011321;28;20229;-79
2022/04/12 05:39:44;;;;;;;8.27;7.23;;;;;;;;;;5011570;28;20235;-80
2022/04/12 05:42:10;;;;;;;10.50;8.40;;;;;;;;;;5012403;28;20197;-80
2022/04/12 05:44:37;;;;;;;9.40;7.00;;;;;;;;;;5015349;28;20187;-79
2022/04/12 05:47:04;;;;;;;8.17;6.83;;;;;;;;;;4995972;28;20192;-83
2022/04/12 05:49:30;;;;;;;7.97;6.50;;;;;;;;;;5008645;28;20183;-76
2022/04/12 05:51:56;;;;;;;9.37;6.77;;;;;;;;;;5009860;28;20265;-78
2022/04/12 05:54:23;;;;;;;9.13;6.67;;;;;;;;;;5009126;28;20259;-76
2022/04/12 05:56:49;;;;;;;12.97;7.23;;;;;;;;;;5010674;28;20222;-78
2022/04/12 05:59:15;;;;;;;9.20;6.43;;;;;;;;;;5009397;28;20226;-78
2022/04/12 06:01:42;;;;;;;7.73;6.47;;;;;;;;;;5007433;28;20401;-77
2022/04/12 06:04:08;;;;;;;9.37;7.07;;;;;;;;;;5008035;28;20175;-77
2022/04/12 06:06:35;;;;;;;8.60;6.60;;;;;;;;;;5015964;28;20200;-78
2022/04/12 06:09:02;;;;;;;8.70;6.93;;;;;;;;;;5010599;28;20176;-82
2022/04/12 06:11:28;;;;;;;9.10;7.43;;;;;;;;;;5012524;28;20195;-77
2022/04/12 06:13:55;;;;;;;10.40;7.57;;;;;;;;;;5011371;28;20238;-78
2022/04/12 06:16:21;;;;;;;8.77;7.47;;;;;;;;;;5011488;28;20702;-78
2022/04/12 06:18:47;;;;;;;12.47;8.40;;;;;;;;;;5012885;28;20179;-78
2022/04/12 06:21:13;;;;;;;15.50;8.80;;;;;;;;;;5013161;28;22139;-78
2022/04/12 06:23:39;;;;;;;10.13;8.20;;;;;;;;;;4994700;28;20245;-79
2022/04/12 06:26:06;;;;;;;10.40;8.10;;;;;;;;;;5009262;28;20286;-78
2022/04/12 06:28:32;;;;;;;9.90;7.90;;;;;;;;;;5012948;28;20183;-78
2022/04/12 06:30:59;;;;;;;8.40;6.43;;;;;;;;;;5012826;28;20182;-77
2022/04/12 06:33:26;;;;;;;12.10;7.50;;;;;;;;;;5012039;28;20190;-78
2022/04/12 06:35:52;;;;;;;8.93;7.07;;;;;;;;;;5008454;28;20253;-78
2022/04/12 06:38:18;;;;;;;10.27;6.97;;;;;;;;;;5013166;28;20183;-78
2022/04/12 06:40:45;;;;;;;10.00;7.60;;;;;;;;;;5012343;28;20675;-77
2022/04/12 06:43:12;;;;;;;9.87;7.10;;;;;;;;;;5013762;28;20180;-77
2022/04/12 06:45:41;;;;;;;9.67;7.83;;;;;;;;;;5004766;28;20207;-78
2022/04/12 06:48:08;;;;;;;10.70;7.47;;;;;;;;;;5013535;28;20684;-77
2022/04/12 06:50:34;;;;;;;11.83;7.63;;;;;;;;;;5014189;28;20179;-77
2022/04/12 06:53:03;;;;;;;12.47;8.23;;;;;;;;;;5007587;28;20211;-77
2022/04/12 06:55:29;;;;;;;10.13;8.50;;;;;;;;;;5012687;28;20203;-77
2022/04/12 06:57:56;;;;;;;10.80;7.30;;;;;;;;;;5013518;28;20191;-77
2022/04/12 07:00:22;;;;;;;9.20;6.90;;;;;;;;;;5012590;28;20203;-77
2022/04/12 07:02:49;;;;;;;10.10;6.90;;;;;;;;;;5027640;28;20678;-78
2022/04/12 07:05:15;;;;;;;11.10;7.10;;;;;;;;;;5012466;28;20207;-78
2022/04/12 07:07:42;;;;;;;9.93;7.80;;;;;;;;;;4994775;28;20671;-78
2022/04/12 07:10:12;;;;;;;8.77;7.43;;;;;;;;;;5000859;28;20681;-78
2022/04/12 07:12:39;;;;;;;13.87;7.10;;;;;;;;;;5010222;28;20214;-78
2022/04/12 07:15:06;;;;;;;8.73;6.97;;;;;;;;;;5019047;28;20214;-77
2022/04/12 07:17:32;;;;;;;8.97;7.00;;;;;;;;;;5013581;28;20182;-78
2022/04/12 07:19:58;;;;;;;8.77;7.30;;;;;;;;;;5012726;28;20238;-77
2022/04/12 07:22:24;;;;;;;9.53;7.30;;;;;;;;;;5013003;28;20598;-78
2022/04/12 07:24:51;;;;;;;9.77;7.33;;;;;;;;;;5006894;28;20257;-78
2022/04/12 07:27:17;;;;;;;9.30;7.03;;;;;;;;;;5009910;28;20187;-78
2022/04/12 07:29:43;;;;;;;9.97;7.10;;;;;;;;;;5009996;28;20187;-78
2022/04/12 07:32:09;;;;;;;7.57;6.70;;;;;;;;;;5009464;28;20728;-79
2022/04/12 07:34:35;;;;;;;9.13;6.87;;;;;;;;;;5010053;28;20199;-79
2022/04/12 07:37:02;;;;;;;8.07;6.97;;;;;;;;;;5009679;28;20183;-79
2022/04/12 07:39:28;;;;;;;7.87;6.80;;;;;;;;;;5012299;28;20199;-78
2022/04/12 07:41:54;;;;;;;9.40;7.37;;;;;;;;;;4994237;28;20178;-78
2022/04/12 07:44:21;;;;;;;9.80;6.77;;;;;;;;;;5011115;28;20506;-78
2022/04/12 07:46:47;;;;;;;9.13;6.60;;;;;;;;;;5012143;28;20692;-78
2022/04/12 07:49:14;;;;;;;9.67;6.83;;;;;;;;;;5013067;28;20229;-78
2022/04/12 07:51:41;;;;;;;8.37;7.00;;;;;;;;;;5008920;28;20268;-78
2022/04/12 07:54:07;;;;;;;8.30;7.40;;;;;;;;;;5002828;28;20214;-79
2022/04/12 07:56:34;;;;;;;7.67;6.30;;;;;;;;;;5012099;28;20718;-79
2022/04/12 07:59:00;;;;;;;7.67;6.33;;;;;;;;;;5011611;28;20187;-79
2022/04/12 08:01:27;;;;;;;8.63;6.90;;;;;;;;;;5011929;28;20183;-79
2022/04/12 08:03:53;;;;;;;9.03;7.00;;;;;;;;;;5012864;28;20263;-80
2022/04/12 08:06:19;;;;;;;7.17;6.10;;;;;;;;;;5012737;28;20226;-79
2022/04/12 08:08:46;;;;;;;8.67;5.93;;;;;;;;;;5011802;28;20187;-79
2022/04/12 08:11:12;;;;;;;8.20;6.63;;;;;;;;;;5013564;28;20179;-79
2022/04/12 08:13:39;;;;;;;8.33;6.73;;;;;;;;;;5009233;28;20207;-79
2022/04/12 08:16:05;;;;;;;8.70;6.60;;;;;;;;;;4999292;28;20195;-79
2022/04/12 08:18:32;;;;;;;9.30;6.27;;;;;;;;;;5012650;28;20207;-80
2022/04/12 08:20:58;;;;;;;7.13;6.30;;;;;;;;;;5012659;28;20257;-80
2022/04/12 08:23:25;;;;;;;8.00;6.70;;;;;;;;;;5011180;28;20177;-80
2022/04/12 08:25:51;;;;;;;11.17;6.87;;;;;;;;;;4995431;28;20572;-80
2022/04/12 08:28:18;;;;;;;8.03;6.23;;;;;;;;;;4994898;28;20184;-80
2022/04/12 08:30:44;;;;;;;9.10;6.87;;;;;;;;;;4992948;28;20191;-80
2022/04/12 08:33:10;;;;;;;9.13;6.97;;;;;;;;;;4997283;28;20188;-80
2022/04/12 08:35:37;;;;;;;8.33;6.77;;;;;;;;;;5007143;28;20207;-80
2022/04/12 08:38:03;;;;;;;6.93;6.20;;;;;;;;;;5000900;28;20659;-79
2022/04/12 08:40:30;;;;;;;8.47;6.87;;;;;;;;;;5001311;28;20702;-80
2022/04/12 08:42:57;;;;;;;9.10;6.43;;;;;;;;;;5011915;28;20186;-80
2022/04/12 08:45:23;;;;;;;9.57;7.10;;;;;;;;;;4995077;28;20207;-79
2022/04/12 08:47:51;;;;;;;10.33;7.27;;;;;;;;;;5012116;28;20191;-80
2022/04/12 08:50:17;;;;;;;8.60;7.00;;;;;;;;;;5011356;28;20277;-79
2022/04/12 08:52:43;;;;;;;8.73;7.07;;;;;;;;;;4991044;28;20223;-79
2022/04/12 08:55:09;;;;;;;8.60;6.40;;;;;;;;;;5012437;28;20281;-79
2022/04/12 08:57:36;;;;;;;7.70;6.33;;;;;;;;;;4991119;28;20195;-79
2022/04/12 09:00:05;;;;;;;9.47;6.57;;;;;;;;;;5007924;28;20215;-79
2022/04/12 09:02:31;;;;;;;9.37;7.50;;;;;;;;;;5024731;28;20192;-80
2022/04/12 09:04:58;;;;;;;7.97;6.80;;;;;;;;;;4999179;28;20619;-80
2022/04/12 09:07:26;;;;;;;9.50;7.20;;;;;;;;;;5001024;28;20183;-80
2022/04/12 09:09:53;;;;;;;7.20;6.47;;;;;;;;;;4995743;28;20207;-80
2022/04/12 09:12:19;;;;;;;9.20;7.20;;;;;;;;;;5012929;28;20179;-80
2022/04/12 09:14:57;;;;;;;9.77;7.47;;;;;;;;;;5020307;28;20559;-81
2022/04/12 09:17:37;;;;;;;8.00;6.97;;;;;;;;;;5001415;28;20182;-80
2022/04/12 09:20:06;;;;;;;8.30;6.70;;;;;;;;;;5016687;28;20198;-80
2022/04/12 09:22:34;;;;;;;7.80;7.00;;;;;;;;;;5017018;28;20191;-80
2022/04/12 09:25:02;;;;;;;8.73;6.60;;;;;;;;;;5014791;28;20207;-80
2022/04/12 09:27:34;;;;;;;8.40;6.60;;;;;;;;;;5013137;28;20537;-80
2022/04/12 09:30:01;;;;;;;7.77;6.50;;;;;;;;;;4996241;28;20196;-80
2022/04/12 09:32:29;;;;;;;7.77;6.40;;;;;;;;;;5011630;28;20202;-80
2022/04/12 09:34:55;;;;;;;9.10;6.83;;;;;;;;;;5015383;28;20210;-80
2022/04/12 09:37:22;;;;;;;9.23;6.93;;;;;;;;;;5013803;28;20175;-80
2022/04/12 09:40:02;;;;;;;8.23;6.90;;;;;;;;;;5011131;28;20221;-80
2022/04/12 09:42:50;;;;;;;8.30;6.73;;;;;;;;;;5009610;28;20576;-80
2022/04/12 09:45:19;;;;;;;7.67;6.30;;;;;;;;;;4999638;28;20206;-80
2022/04/12 09:47:46;;;;;;;8.57;6.50;;;;;;;;;;5008449;28;20532;-80
2022/04/12 09:50:12;;;;;;;11.70;6.37;;;;;;;;;;5015632;28;20189;-80
2022/04/12 09:52:39;;;;;;;6.83;5.73;;;;;;;;;;5007408;28;20205;-80
2022/04/12 09:55:09;;;;;;;8.50;6.63;;;;;;;;;;5016083;28;20211;-79
2022/04/12 09:57:38;;;;;;;7.40;5.83;;;;;;;;;;5015815;28;20191;-80
2022/04/12 10:00:05;;;;;;;7.47;6.30;;;;;;;;;;5015912;28;20207;-80
2022/04/12 10:02:33;;;;;;;7.97;6.17;;;;;;;;;;5029259;28;20237;-80
2022/04/12 10:05:01;;;;;;;7.97;5.63;;;;;;;;;;5015973;28;20257;-80
2022/04/12 10:07:32;;;;;;;7.37;6.13;;;;;;;;;;5016421;28;20205;-80
2022/04/12 10:09:58;;;;;;;7.67;6.17;;;;;;;;;;5014492;28;20658;-80
2022/04/12 10:12:25;;;;;;;7.33;5.73;;;;;;;;;;5014220;28;20187;-80
2022/04/12 10:14:51;;;;;;;10.43;6.47;;;;;;;;;;5014750;28;20680;-80
2022/04/12 10:17:17;;;;;;;9.30;5.90;;;;;;;;;;5000434;28;20187;-80
2022/04/12 10:19:44;;;;;;;8.73;6.63;;;;;;;;;;4996487;28;20336;-80
2022/04/12 10:22:10;;;;;;;7.73;6.53;;;;;;;;;;5017302;28;20171;-80
2022/04/12 10:24:37;;;;;;;7.00;6.17;;;;;;;;;;5012061;28;20176;-80
2022/04/12 10:27:03;;;;;;;6.67;5.97;;;;;;;;;;5013906;28;20184;-80
2022/04/12 10:29:29;;;;;;;8.27;6.03;;;;;;;;;;5000886;28;20191;-80
2022/04/12 10:31:57;;;;;;;8.37;5.67;;;;;;;;;;5022575;28;20195;-80
2022/04/12 10:34:23;;;;;;;7.27;5.90;;;;;;;;;;5018986;28;20187;-80
2022/04/12 10:36:58;;;;;;;6.93;5.40;;;;;;;;;;5018620;28;20253;-80
2022/04/12 10:39:32;;;;;;;6.27;5.33;;;;;;;;;;5018099;28;20637;-80
2022/04/12 10:42:01;;;;;;;7.77;5.83;;;;;;;;;;5016850;28;20225;-80
2022/04/12 10:44:27;;;;;;;7.73;5.33;;;;;;;;;;4999100;28;20191;-80
2022/04/12 10:46:57;;;;;;;9.20;5.57;;;;;;;;;;5016397;28;20199;-80
2022/04/12 10:49:23;;;;;;;6.07;4.93;;;;;;;;;;5016025;28;20195;-80
2022/04/12 10:51:57;;;;;;;5.67;4.90;;;;;;;;;;5017557;28;20179;-80
2022/04/12 10:54:28;;;;;;;6.47;4.97;;;;;;;;;;4999903;28;20179;-80
2022/04/12 10:57:13;;;;;;;7.57;5.47;;;;;;;;;;5017924;28;20958;-83
2022/04/12 10:59:40;;;;;;;6.93;5.30;;;;;;;;;;5015288;28;20621;-80
2022/04/12 11:02:14;;;;;;;7.30;5.80;;;;;;;;;;5001222;28;20190;-84
2022/04/12 11:04:40;;;;;;;6.73;5.10;;;;;;;;;;5016022;28;20666;-81
2022/04/12 11:07:10;;;;;;;6.70;5.43;;;;;;;;;;5017054;28;20200;-80
2022/04/12 11:09:36;;;;;;;7.67;5.00;;;;;;;;;;4972957;28;20221;-82
2022/04/12 11:12:03;;;;;;;7.17;5.23;;;;;;;;;;5011308;28;20191;-82
2022/04/12 11:14:36;;;;;;;7.87;5.33;;;;;;;;;;5020543;28;20195;-83
2022/04/12 11:17:03;;;;;;;7.33;4.70;;;;;;;;;;5029960;28;20210;-83
2022/04/12 11:19:40;;;;;;;6.13;4.20;;;;;;;;;;5019375;28;20218;-82
2022/04/12 11:22:10;;;;;;;6.37;4.47;;;;;;;;;;5001155;28;20183;-82
2022/04/12 11:24:36;;;;;;;5.27;4.40;;;;;;;;;;5001285;28;20197;-82
2022/04/12 11:27:04;;;;;;;7.47;4.20;;;;;;;;;;5013302;28;20290;-80
2022/04/12 11:29:30;;;;;;;5.33;4.20;;;;;;;;;;5008834;28;20192;-81
2022/04/12 11:31:57;;;;;;;9.47;4.57;;;;;;;;;;5009485;28;20598;-80
2022/04/12 11:34:25;;;;;;;5.73;4.70;;;;;;;;;;4996491;28;20219;-80
2022/04/12 11:36:53;;;;;;;5.10;3.77;;;;;;;;;;5025215;28;20678;-79
2022/04/12 11:39:20;;;;;;;5.47;4.00;;;;;;;;;;4992306;28;20187;-78
2022/04/12 11:41:46;;;;;;;5.40;3.70;;;;;;;;;;4995951;28;20218;-79
2022/04/12 11:44:12;;;;;;;3.73;3.30;;;;;;;;;;5005951;28;20576;-79
2022/04/12 11:46:38;;;;;;;4.57;3.40;;;;;;;;;;4999033;28;20707;-79
2022/04/12 11:49:05;;;;;;;4.83;3.40;;;;;;;;;;5021581;28;20273;-78
2022/04/12 11:51:36;;;;;;;7.10;3.30;;;;;;;;;;5009051;28;20274;-79
2022/04/12 11:54:02;;;;;;;4.03;2.90;;;;;;;;;;5010907;28;20238;-79
2022/04/12 11:56:28;;;;;;;3.90;2.60;;;;;;;;;;5010275;28;20238;-79
2022/04/12 11:58:55;;;;;;;2.53;2.33;;;;;;;;;;5013734;28;20567;-79
2022/04/12 12:01:31;;;;;;;5.00;2.20;;;;;;;;;;5015913;28;20205;-79
2022/04/12 12:04:04;;;;;;;3.10;2.20;;;;;;;;;;5019170;28;20233;-79
2022/04/12 12:06:31;;;;;;;2.37;1.90;;;;;;;;;;5024745;28;20606;-80
2022/04/12 12:08:57;;;;;;;2.70;1.87;;;14.90;45.50;;;;;;5034862;28;20191;-83
2022/04/12 12:11:23;;;;;;;2.97;1.70;;;26.00;41.10;;;;;;4993233;28;20194;-82
2022/04/12 12:13:56;;;;;;;2.80;1.77;;;26.10;40.80;;;;;;5007309;28;20239;-84
2022/04/12 12:16:22;;;;;;;3.53;1.90;;;26.40;40.30;;;;;;5009359;28;20200;-81
2022/04/12 12:18:50;;;;;;;2.50;1.50;;;26.60;40.60;;;;;;5008219;28;20183;-82
2022/04/12 12:21:19;;;;;;;2.73;1.40;;;26.90;39.90;;;;;;5006473;28;20321;-78
2022/04/12 12:23:46;;;;;;;2.00;1.47;;;27.20;39.10;;;;;;4990321;28;20214;-83
2022/04/12 12:26:12;;;;;;;3.60;1.60;;;27.40;39.10;;;;;;4983265;28;20203;-80
2022/04/12 12:28:41;;;;;;;1.87;1.40;;;27.50;37.70;;;;;;5011763;28;20235;-80
2022/04/12 12:31:07;;;;;;;1.90;1.40;;;27.50;37.30;;;;;;5015635;28;20662;-82
2022/04/12 12:33:38;;;;;;;2.93;1.63;;;27.40;37.60;;;;;;4991850;28;20404;-82
2022/04/12 12:36:14;;;;;;;3.80;1.70;;;27.30;35.80;;;;;;4991269;28;20642;-83
2022/04/12 12:38:43;;;;;;;2.47;1.60;;;27.00;34.60;;;;;;5007288;28;20189;-81
2022/04/12 12:41:09;;;;;;;1.77;1.30;;;26.90;35.50;;;;;;4994756;28;20856;-82
2022/04/12 12:43:34;;;;;;;1.70;1.50;;;26.90;35.30;;;;;;5010280;28;20230;-82
2022/04/12 12:46:06;;;;;;;2.17;1.70;;;27.00;34.70;;;;;;5011090;28;20203;-81
2022/04/12 12:48:31;;;;;;;1.90;1.40;;;27.20;34.70;;;;;;5012707;28;20183;-80
2022/04/12 12:51:02;;;;;;;1.47;1.20;;;27.40;34.70;;;;;;5000451;28;20723;-80
2022/04/12 12:53:27;;;;;;;2.13;1.40;;;27.40;34.50;;;;;;5013134;28;20234;-82
2022/04/12 12:55:53;;;;;;;2.73;1.50;;;27.70;34.50;;;;;;4996976;28;20354;-82
2022/04/12 12:58:21;;;;;;;1.50;1.40;;;28.00;34.40;;;;;;5012879;28;20187;-82
2022/04/12 13:00:47;;;;;;;3.10;1.37;;;28.20;34.20;;;;;;5013406;28;20183;-80
2022/04/12 13:03:16;;;;;;;3.47;1.40;;;28.50;32.80;;;;;;5013697;28;20262;-82
2022/04/12 13:05:58;;;;;;;1.63;1.53;;;28.90;33.00;;;;;;5013262;28;20208;-82
2022/04/12 13:08:25;;;;;;;2.60;1.43;;;29.40;32.90;;;;;;5015754;28;20183;-82
2022/04/12 13:10:54;;;;;;;1.37;1.20;;;29.80;32.30;;;;;;5032764;28;20205;-79
2022/04/12 13:13:20;;;;;;;2.97;1.63;;;30.20;32.10;;;;;;5000796;28;20264;-83
2022/04/12 13:15:47;;;;;;;4.40;1.37;;;30.50;31.70;;;;;;5012108;28;20253;-79
2022/04/12 13:18:14;;;;;;;1.83;1.40;;;30.70;31.80;;;;;;4995840;28;21927;-80
2022/04/12 13:20:40;;;;;;;3.70;1.30;;;30.90;31.00;;;;;;5013760;28;20211;-81
2022/04/12 13:23:06;;;;;;;2.07;1.30;;;31.10;31.10;;;;;;5011985;28;20176;-79
2022/04/12 13:25:32;;;;;;;1.80;1.50;;;31.30;30.80;;;;;;5007868;28;20224;-83
2022/04/12 13:27:57;;;;;;;3.10;1.70;;;31.10;30.90;;;;;;5004513;28;20322;-83
2022/04/12 13:30:23;;;;;;;3.20;1.53;;;31.10;31.40;;;;;;4986834;28;20640;-82
2022/04/12 13:32:50;;;;;;;1.40;1.30;;;31.20;31.10;;;;;;4981331;28;20201;-82
2022/04/12 13:35:19;;;;;;;3.00;1.30;;;31.20;30.90;;;;;;5013548;28;20671;-82
2022/04/12 13:37:46;;;;;;;2.60;1.40;;;31.20;30.90;;;;;;4994128;28;20299;-82
2022/04/12 13:40:12;;;;;;;2.60;1.40;;;31.20;30.20;;;;;;5015506;28;20202;-82
2022/04/12 13:42:45;;;;;;;1.57;1.37;;;31.00;30.20;;;;;;4980014;28;20197;-80
2022/04/12 13:45:15;;;;;;;2.07;1.60;;;30.80;30.70;;;;;;5014414;28;20207;-81
2022/04/12 13:47:42;;;;;;;2.57;1.50;;;30.60;31.20;;;;;;4991124;28;20532;-82
2022/04/12 13:50:09;;;;;;;3.23;1.60;;;30.80;31.20;;;;;;4985720;28;20341;-82
2022/04/12 13:52:35;;;;;;;2.43;1.57;;;30.90;31.20;;;;;;4998810;28;20176;-82
2022/04/12 13:55:01;;;;;;;3.40;1.40;;;30.90;30.50;;;;;;5019162;28;20215;-82
2022/04/12 13:57:27;;;;;;;1.53;1.40;;;30.70;30.70;;;;;;4999541;28;20196;-82
2022/04/12 13:59:52;;;;;;;2.03;1.60;;;30.70;31.00;;;;;;4999946;28;20341;-83
2022/04/12 14:02:19;;;;;;;2.70;1.40;;;30.60;31.10;;;;;;5000159;28;20193;-83
2022/04/12 14:04:44;;;;;;;2.17;1.67;;;30.30;31.10;;;;;;5006891;28;20661;-83
2022/04/12 14:07:10;;;;;;;2.63;1.50;;;30.20;31.20;;;;;;5006227;28;21015;-83
2022/04/12 14:09:37;;;;;;;2.07;1.40;;;29.90;31.00;;;;;;5003388;28;20263;-83
2022/04/12 14:12:03;;;;;;;2.23;1.40;;;29.80;31.40;;;;;;5003216;28;20250;-83
2022/04/12 14:14:29;;;;;;;1.50;1.40;;;29.80;31.90;;;;;;5004277;28;20190;-83
2022/04/12 14:16:55;;;;;;;2.60;1.30;;;29.70;31.70;;;;;;4996350;28;20203;-83
2022/04/12 14:19:21;;;;;;;2.83;1.60;;;29.60;32.10;;;;;;5009866;28;20198;-83
2022/04/12 14:21:48;;;;;;;2.47;1.30;;;29.20;32.20;;;;;;5006941;28;20222;-83